sensor_id;sensor_type;location;lat;lon;timestamp;P1;durP1;ratioP1;P2;durP2;ratioP2
67597;SDS011;62026;39.230;9.122;2023-01-23T00:01:03;7.93;;;5.05;;
67597;SDS011;62026;39.230;9.122;2023-01-23T00:03:37;10.27;;;4.80;;
67597;SDS011;62026;39.230;9.122;2023-01-23T00:06:04;7.95;;;4.28;;
67597;SDS011;62026;39.230;9.122;2023-01-23T00:08:35;10.73;;;4.63;;
67597;SDS011;62026;39.230;9.122;2023-01-23T00:11:05;11.02;;;5.03;;
67597;SDS011;62026;39.230;9.122;2023-01-23T00:13:34;7.97;;;4.75;;
67597;SDS011;62026;39.230;9.122;2023-01-23T00:16:07;8.23;;;4.53;;
67597;SDS011;62026;39.230;9.122;2023-01-23T00:18:37;7.78;;;4.60;;
67597;SDS011;62026;39.230;9.122;2023-01-23T00:21:08;11.52;;;5.18;;
67597;SDS011;62026;39.230;9.122;2023-01-23T00:23:37;9.02;;;4.45;;
67597;SDS011;62026;39.230;9.122;2023-01-23T00:26:08;7.70;;;4.03;;
67597;SDS011;62026;39.230;9.122;2023-01-23T00:28:42;8.23;;;4.20;;
67597;SDS011;62026;39.230;9.122;2023-01-23T00:31:13;8.95;;;3.95;;
67597;SDS011;62026;39.230;9.122;2023-01-23T00:33:43;7.35;;;4.30;;
67597;SDS011;62026;39.230;9.122;2023-01-23T00:36:10;11.23;;;4.65;;
67597;SDS011;62026;39.230;9.122;2023-01-23T00:38:39;5.65;;;3.78;;
67597;SDS011;62026;39.230;9.122;2023-01-23T00:41:06;8.18;;;3.72;;
67597;SDS011;62026;39.230;9.122;2023-01-23T00:43:32;8.00;;;3.47;;
67597;SDS011;62026;39.230;9.122;2023-01-23T00:45:58;6.15;;;3.50;;
67597;SDS011;62026;39.230;9.122;2023-01-23T00:48:24;5.15;;;3.15;;
67597;SDS011;62026;39.230;9.122;2023-01-23T00:50:50;7.18;;;3.60;;
67597;SDS011;62026;39.230;9.122;2023-01-23T00:53:17;6.95;;;3.35;;
67597;SDS011;62026;39.230;9.122;2023-01-23T00:55:43;4.80;;;2.95;;
67597;SDS011;62026;39.230;9.122;2023-01-23T00:58:09;3.92;;;2.10;;
67597;SDS011;62026;39.230;9.122;2023-01-23T01:00:36;5.60;;;2.30;;
67597;SDS011;62026;39.230;9.122;2023-01-23T01:03:04;3.38;;;2.10;;
67597;SDS011;62026;39.230;9.122;2023-01-23T01:05:31;2.92;;;2.00;;
67597;SDS011;62026;39.230;9.122;2023-01-23T01:07:58;3.90;;;2.30;;
67597;SDS011;62026;39.230;9.122;2023-01-23T01:10:26;3.25;;;1.70;;
67597;SDS011;62026;39.230;9.122;2023-01-23T01:12:56;2.55;;;1.80;;
67597;SDS011;62026;39.230;9.122;2023-01-23T01:15:25;2.38;;;1.63;;
67597;SDS011;62026;39.230;9.122;2023-01-23T01:17:54;3.55;;;2.05;;
67597;SDS011;62026;39.230;9.122;2023-01-23T01:20:22;3.13;;;2.00;;
67597;SDS011;62026;39.230;9.122;2023-01-23T01:22:50;4.10;;;2.15;;
67597;SDS011;62026;39.230;9.122;2023-01-23T01:25:18;5.75;;;2.85;;
67597;SDS011;62026;39.230;9.122;2023-01-23T01:27:45;6.70;;;2.78;;
67597;SDS011;62026;39.230;9.122;2023-01-23T01:30:11;5.95;;;2.53;;
67597;SDS011;62026;39.230;9.122;2023-01-23T01:32:39;3.95;;;2.55;;
67597;SDS011;62026;39.230;9.122;2023-01-23T01:35:06;3.17;;;2.20;;
67597;SDS011;62026;39.230;9.122;2023-01-23T01:37:37;3.65;;;2.10;;
67597;SDS011;62026;39.230;9.122;2023-01-23T01:40:06;3.28;;;2.03;;
67597;SDS011;62026;39.230;9.122;2023-01-23T01:42:38;5.70;;;2.23;;
67597;SDS011;62026;39.230;9.122;2023-01-23T01:54:25;3.95;;;2.15;;
67597;SDS011;62026;39.230;9.122;2023-01-23T02:00:13;2.80;;;1.80;;
67597;SDS011;62026;39.230;9.122;2023-01-23T02:02:44;4.03;;;1.95;;
67597;SDS011;62026;39.230;9.122;2023-01-23T02:05:20;11.10;;;2.15;;
67597;SDS011;62026;39.230;9.122;2023-01-23T02:07:55;5.97;;;2.20;;
67597;SDS011;62026;39.230;9.122;2023-01-23T02:10:31;2.75;;;1.77;;
67597;SDS011;62026;39.230;9.122;2023-01-23T02:15:59;2.47;;;1.50;;
67597;SDS011;62026;39.230;9.122;2023-01-23T02:18:35;4.70;;;1.80;;
67597;SDS011;62026;39.230;9.122;2023-01-23T02:26:06;2.22;;;1.23;;
67597;SDS011;62026;39.230;9.122;2023-01-23T02:31:09;2.03;;;1.40;;
67597;SDS011;62026;39.230;9.122;2023-01-23T02:36:04;3.13;;;1.75;;
67597;SDS011;62026;39.230;9.122;2023-01-23T02:38:43;2.75;;;1.25;;
67597;SDS011;62026;39.230;9.122;2023-01-23T02:41:35;3.10;;;1.40;;
67597;SDS011;62026;39.230;9.122;2023-01-23T02:44:19;2.15;;;1.35;;
67597;SDS011;62026;39.230;9.122;2023-01-23T02:49:26;1.88;;;1.25;;
67597;SDS011;62026;39.230;9.122;2023-01-23T02:51:53;2.15;;;1.25;;
67597;SDS011;62026;39.230;9.122;2023-01-23T02:54:22;2.45;;;1.35;;
67597;SDS011;62026;39.230;9.122;2023-01-23T02:56:49;4.68;;;1.40;;
67597;SDS011;62026;39.230;9.122;2023-01-23T02:59:17;4.53;;;1.70;;
67597;SDS011;62026;39.230;9.122;2023-01-23T03:02:03;1.75;;;1.38;;
67597;SDS011;62026;39.230;9.122;2023-01-23T03:04:30;2.83;;;1.50;;
67597;SDS011;62026;39.230;9.122;2023-01-23T03:06:57;3.97;;;1.50;;
67597;SDS011;62026;39.230;9.122;2023-01-23T03:09:23;3.33;;;1.65;;
67597;SDS011;62026;39.230;9.122;2023-01-23T03:11:50;3.17;;;1.77;;
67597;SDS011;62026;39.230;9.122;2023-01-23T03:14:18;3.33;;;1.65;;
67597;SDS011;62026;39.230;9.122;2023-01-23T03:16:46;2.83;;;1.65;;
67597;SDS011;62026;39.230;9.122;2023-01-23T03:19:18;4.40;;;1.75;;
67597;SDS011;62026;39.230;9.122;2023-01-23T03:21:48;4.35;;;1.95;;
67597;SDS011;62026;39.230;9.122;2023-01-23T03:24:15;2.67;;;1.83;;
67597;SDS011;62026;39.230;9.122;2023-01-23T03:26:42;3.90;;;1.92;;
67597;SDS011;62026;39.230;9.122;2023-01-23T03:29:20;4.50;;;1.80;;
67597;SDS011;62026;39.230;9.122;2023-01-23T03:32:10;5.55;;;2.58;;
67597;SDS011;62026;39.230;9.122;2023-01-23T03:34:38;3.15;;;1.77;;
67597;SDS011;62026;39.230;9.122;2023-01-23T03:37:06;3.25;;;2.17;;
67597;SDS011;62026;39.230;9.122;2023-01-23T03:39:33;3.35;;;2.03;;
67597;SDS011;62026;39.230;9.122;2023-01-23T03:42:19;5.75;;;2.25;;
67597;SDS011;62026;39.230;9.122;2023-01-23T03:44:50;2.92;;;1.80;;
67597;SDS011;62026;39.230;9.122;2023-01-23T03:47:19;3.90;;;2.05;;
67597;SDS011;62026;39.230;9.122;2023-01-23T03:49:45;5.20;;;1.92;;
67597;SDS011;62026;39.230;9.122;2023-01-23T03:52:12;4.32;;;1.80;;
67597;SDS011;62026;39.230;9.122;2023-01-23T03:54:38;4.45;;;2.55;;
67597;SDS011;62026;39.230;9.122;2023-01-23T03:57:07;2.90;;;2.08;;
67597;SDS011;62026;39.230;9.122;2023-01-23T04:00:03;4.63;;;2.20;;
67597;SDS011;62026;39.230;9.122;2023-01-23T04:02:43;4.57;;;2.25;;
67597;SDS011;62026;39.230;9.122;2023-01-23T04:05:11;3.80;;;2.28;;
67597;SDS011;62026;39.230;9.122;2023-01-23T04:07:37;3.55;;;2.30;;
67597;SDS011;62026;39.230;9.122;2023-01-23T04:10:03;6.72;;;2.30;;
67597;SDS011;62026;39.230;9.122;2023-01-23T04:12:30;3.60;;;2.08;;
67597;SDS011;62026;39.230;9.122;2023-01-23T04:14:56;3.88;;;1.92;;
67597;SDS011;62026;39.230;9.122;2023-01-23T04:17:22;2.60;;;2.10;;
67597;SDS011;62026;39.230;9.122;2023-01-23T04:19:49;6.10;;;2.50;;
67597;SDS011;62026;39.230;9.122;2023-01-23T04:22:15;4.50;;;2.20;;
67597;SDS011;62026;39.230;9.122;2023-01-23T04:24:46;6.97;;;2.40;;
67597;SDS011;62026;39.230;9.122;2023-01-23T04:27:12;3.17;;;1.90;;
67597;SDS011;62026;39.230;9.122;2023-01-23T04:29:38;4.63;;;2.50;;
67597;SDS011;62026;39.230;9.122;2023-01-23T04:32:06;3.78;;;2.30;;
67597;SDS011;62026;39.230;9.122;2023-01-23T04:34:36;4.15;;;2.20;;
67597;SDS011;62026;39.230;9.122;2023-01-23T04:37:02;4.50;;;1.67;;
67597;SDS011;62026;39.230;9.122;2023-01-23T04:39:29;4.53;;;1.85;;
67597;SDS011;62026;39.230;9.122;2023-01-23T04:41:57;2.25;;;1.50;;
67597;SDS011;62026;39.230;9.122;2023-01-23T04:44:41;3.70;;;1.90;;
67597;SDS011;62026;39.230;9.122;2023-01-23T04:47:26;6.00;;;2.00;;
67597;SDS011;62026;39.230;9.122;2023-01-23T04:49:52;3.53;;;1.83;;
67597;SDS011;62026;39.230;9.122;2023-01-23T04:52:18;4.30;;;1.80;;
67597;SDS011;62026;39.230;9.122;2023-01-23T04:54:51;2.30;;;1.73;;
67597;SDS011;62026;39.230;9.122;2023-01-23T04:57:18;4.03;;;2.08;;
67597;SDS011;62026;39.230;9.122;2023-01-23T04:59:45;6.57;;;2.42;;
67597;SDS011;62026;39.230;9.122;2023-01-23T05:02:11;4.22;;;2.03;;
67597;SDS011;62026;39.230;9.122;2023-01-23T05:04:41;2.83;;;1.73;;
67597;SDS011;62026;39.230;9.122;2023-01-23T05:07:08;2.85;;;1.95;;
67597;SDS011;62026;39.230;9.122;2023-01-23T05:09:40;5.95;;;2.10;;
67597;SDS011;62026;39.230;9.122;2023-01-23T05:12:10;4.75;;;1.80;;
67597;SDS011;62026;39.230;9.122;2023-01-23T05:14:37;3.03;;;1.80;;
67597;SDS011;62026;39.230;9.122;2023-01-23T05:17:03;2.53;;;1.50;;
67597;SDS011;62026;39.230;9.122;2023-01-23T05:19:43;3.08;;;1.88;;
67597;SDS011;62026;39.230;9.122;2023-01-23T05:22:09;2.97;;;1.67;;
67597;SDS011;62026;39.230;9.122;2023-01-23T05:24:35;2.72;;;1.70;;
67597;SDS011;62026;39.230;9.122;2023-01-23T05:27:03;2.80;;;1.40;;
67597;SDS011;62026;39.230;9.122;2023-01-23T05:29:30;2.38;;;1.75;;
67597;SDS011;62026;39.230;9.122;2023-01-23T05:32:02;3.30;;;2.05;;
67597;SDS011;62026;39.230;9.122;2023-01-23T05:34:37;11.77;;;4.70;;
67597;SDS011;62026;39.230;9.122;2023-01-23T05:37:30;2.38;;;1.75;;
67597;SDS011;62026;39.230;9.122;2023-01-23T05:40:02;3.50;;;1.85;;
67597;SDS011;62026;39.230;9.122;2023-01-23T05:43:03;7.57;;;2.50;;
67597;SDS011;62026;39.230;9.122;2023-01-23T05:45:53;4.63;;;2.42;;
67597;SDS011;62026;39.230;9.122;2023-01-23T05:48:28;4.60;;;2.33;;
67597;SDS011;62026;39.230;9.122;2023-01-23T05:50:54;4.25;;;2.13;;
67597;SDS011;62026;39.230;9.122;2023-01-23T05:53:21;4.15;;;2.40;;
67597;SDS011;62026;39.230;9.122;2023-01-23T05:55:47;4.93;;;2.90;;
67597;SDS011;62026;39.230;9.122;2023-01-23T05:58:13;4.00;;;2.65;;
67597;SDS011;62026;39.230;9.122;2023-01-23T06:01:03;3.97;;;2.83;;
67597;SDS011;62026;39.230;9.122;2023-01-23T06:03:48;4.43;;;2.90;;
67597;SDS011;62026;39.230;9.122;2023-01-23T06:06:29;5.80;;;2.70;;
67597;SDS011;62026;39.230;9.122;2023-01-23T06:08:57;6.93;;;2.75;;
67597;SDS011;62026;39.230;9.122;2023-01-23T06:11:24;4.38;;;2.80;;
67597;SDS011;62026;39.230;9.122;2023-01-23T06:13:50;6.88;;;3.10;;
67597;SDS011;62026;39.230;9.122;2023-01-23T06:16:16;9.52;;;3.00;;
67597;SDS011;62026;39.230;9.122;2023-01-23T06:18:42;4.35;;;2.75;;
67597;SDS011;62026;39.230;9.122;2023-01-23T06:21:08;8.00;;;3.40;;
67597;SDS011;62026;39.230;9.122;2023-01-23T06:23:38;6.60;;;3.10;;
67597;SDS011;62026;39.230;9.122;2023-01-23T06:26:04;6.13;;;3.20;;
67597;SDS011;62026;39.230;9.122;2023-01-23T06:28:32;5.55;;;2.72;;
67597;SDS011;62026;39.230;9.122;2023-01-23T06:30:59;4.80;;;2.58;;
67597;SDS011;62026;39.230;9.122;2023-01-23T06:33:52;4.88;;;2.83;;
67597;SDS011;62026;39.230;9.122;2023-01-23T06:36:21;8.57;;;3.35;;
67597;SDS011;62026;39.230;9.122;2023-01-23T06:38:48;6.80;;;3.10;;
67597;SDS011;62026;39.230;9.122;2023-01-23T06:41:15;6.60;;;3.38;;
67597;SDS011;62026;39.230;9.122;2023-01-23T06:43:48;7.43;;;3.90;;
67597;SDS011;62026;39.230;9.122;2023-01-23T06:46:19;6.57;;;3.25;;
67597;SDS011;62026;39.230;9.122;2023-01-23T06:48:45;8.57;;;3.03;;
67597;SDS011;62026;39.230;9.122;2023-01-23T06:51:12;5.25;;;3.00;;
67597;SDS011;62026;39.230;9.122;2023-01-23T06:53:41;6.53;;;3.22;;
67597;SDS011;62026;39.230;9.122;2023-01-23T06:56:07;7.13;;;2.97;;
67597;SDS011;62026;39.230;9.122;2023-01-23T06:58:36;8.45;;;3.10;;
67597;SDS011;62026;39.230;9.122;2023-01-23T07:01:15;6.18;;;3.28;;
67597;SDS011;62026;39.230;9.122;2023-01-23T07:04:10;8.68;;;3.05;;
67597;SDS011;62026;39.230;9.122;2023-01-23T07:06:38;7.78;;;3.33;;
67597;SDS011;62026;39.230;9.122;2023-01-23T07:09:04;6.60;;;3.40;;
67597;SDS011;62026;39.230;9.122;2023-01-23T07:11:30;11.35;;;3.83;;
67597;SDS011;62026;39.230;9.122;2023-01-23T07:13:57;7.65;;;4.15;;
67597;SDS011;62026;39.230;9.122;2023-01-23T07:16:25;10.27;;;4.28;;
67597;SDS011;62026;39.230;9.122;2023-01-23T07:18:53;6.40;;;3.80;;
67597;SDS011;62026;39.230;9.122;2023-01-23T07:21:23;10.82;;;4.35;;
67597;SDS011;62026;39.230;9.122;2023-01-23T07:23:49;7.65;;;4.03;;
67597;SDS011;62026;39.230;9.122;2023-01-23T07:26:15;8.55;;;3.88;;
67597;SDS011;62026;39.230;9.122;2023-01-23T07:28:41;6.25;;;3.72;;
67597;SDS011;62026;39.230;9.122;2023-01-23T07:31:07;8.55;;;4.03;;
67597;SDS011;62026;39.230;9.122;2023-01-23T07:33:34;9.40;;;3.88;;
67597;SDS011;62026;39.230;9.122;2023-01-23T07:36:00;11.82;;;4.05;;
67597;SDS011;62026;39.230;9.122;2023-01-23T07:38:31;7.07;;;3.90;;
67597;SDS011;62026;39.230;9.122;2023-01-23T07:40:57;6.35;;;3.83;;
67597;SDS011;62026;39.230;9.122;2023-01-23T07:43:24;8.00;;;4.32;;
67597;SDS011;62026;39.230;9.122;2023-01-23T07:45:51;16.42;;;4.45;;
67597;SDS011;62026;39.230;9.122;2023-01-23T07:48:17;8.02;;;4.68;;
67597;SDS011;62026;39.230;9.122;2023-01-23T07:50:44;10.70;;;4.97;;
67597;SDS011;62026;39.230;9.122;2023-01-23T07:53:09;7.88;;;4.55;;
67597;SDS011;62026;39.230;9.122;2023-01-23T07:55:39;10.23;;;4.25;;
67597;SDS011;62026;39.230;9.122;2023-01-23T07:58:05;9.93;;;4.60;;
67597;SDS011;62026;39.230;9.122;2023-01-23T08:00:31;9.93;;;4.47;;
67597;SDS011;62026;39.230;9.122;2023-01-23T08:02:57;9.52;;;4.38;;
67597;SDS011;62026;39.230;9.122;2023-01-23T08:05:23;13.90;;;4.63;;
67597;SDS011;62026;39.230;9.122;2023-01-23T08:07:49;9.07;;;4.20;;
67597;SDS011;62026;39.230;9.122;2023-01-23T08:10:16;13.10;;;4.60;;
67597;SDS011;62026;39.230;9.122;2023-01-23T08:12:42;7.10;;;4.18;;
67597;SDS011;62026;39.230;9.122;2023-01-23T08:15:09;12.00;;;4.68;;
67597;SDS011;62026;39.230;9.122;2023-01-23T08:17:35;10.20;;;3.67;;
67597;SDS011;62026;39.230;9.122;2023-01-23T08:20:02;8.50;;;4.45;;
67597;SDS011;62026;39.230;9.122;2023-01-23T08:22:28;7.32;;;4.22;;
67597;SDS011;62026;39.230;9.122;2023-01-23T08:24:54;10.57;;;4.07;;
67597;SDS011;62026;39.230;9.122;2023-01-23T08:27:20;6.03;;;3.63;;
67597;SDS011;62026;39.230;9.122;2023-01-23T08:29:46;9.88;;;3.83;;
67597;SDS011;62026;39.230;9.122;2023-01-23T08:32:13;8.05;;;3.92;;
67597;SDS011;62026;39.230;9.122;2023-01-23T08:34:40;11.13;;;4.38;;
67597;SDS011;62026;39.230;9.122;2023-01-23T08:37:06;7.30;;;3.53;;
67597;SDS011;62026;39.230;9.122;2023-01-23T08:39:32;7.70;;;4.10;;
67597;SDS011;62026;39.230;9.122;2023-01-23T08:41:59;12.02;;;4.20;;
67597;SDS011;62026;39.230;9.122;2023-01-23T08:44:25;7.43;;;4.68;;
67597;SDS011;62026;39.230;9.122;2023-01-23T08:46:51;7.38;;;3.83;;
67597;SDS011;62026;39.230;9.122;2023-01-23T08:49:17;8.25;;;3.67;;
67597;SDS011;62026;39.230;9.122;2023-01-23T08:51:44;7.20;;;3.53;;
67597;SDS011;62026;39.230;9.122;2023-01-23T08:54:11;9.18;;;4.60;;
67597;SDS011;62026;39.230;9.122;2023-01-23T08:56:37;8.10;;;4.50;;
67597;SDS011;62026;39.230;9.122;2023-01-23T08:59:05;9.30;;;5.00;;
67597;SDS011;62026;39.230;9.122;2023-01-23T09:01:31;15.40;;;4.82;;
67597;SDS011;62026;39.230;9.122;2023-01-23T09:03:57;7.80;;;4.32;;
67597;SDS011;62026;39.230;9.122;2023-01-23T09:06:23;10.93;;;4.07;;
67597;SDS011;62026;39.230;9.122;2023-01-23T09:08:49;8.75;;;3.88;;
67597;SDS011;62026;39.230;9.122;2023-01-23T09:11:16;6.43;;;3.25;;
67597;SDS011;62026;39.230;9.122;2023-01-23T09:13:44;6.95;;;3.30;;
67597;SDS011;62026;39.230;9.122;2023-01-23T09:16:11;6.07;;;3.47;;
67597;SDS011;62026;39.230;9.122;2023-01-23T09:18:37;7.65;;;3.67;;
67597;SDS011;62026;39.230;9.122;2023-01-23T09:21:06;7.70;;;3.40;;
67597;SDS011;62026;39.230;9.122;2023-01-23T09:23:35;6.68;;;3.33;;
67597;SDS011;62026;39.230;9.122;2023-01-23T09:26:05;8.75;;;3.28;;
67597;SDS011;62026;39.230;9.122;2023-01-23T09:28:35;3.25;;;2.30;;
67597;SDS011;62026;39.230;9.122;2023-01-23T09:31:06;5.90;;;2.55;;
67597;SDS011;62026;39.230;9.122;2023-01-23T09:33:35;5.05;;;3.05;;
67597;SDS011;62026;39.230;9.122;2023-01-23T09:36:02;10.25;;;3.10;;
67597;SDS011;62026;39.230;9.122;2023-01-23T09:38:32;7.53;;;3.30;;
67597;SDS011;62026;39.230;9.122;2023-01-23T09:40:59;5.07;;;3.28;;
67597;SDS011;62026;39.230;9.122;2023-01-23T09:46:25;3.50;;;1.95;;
67597;SDS011;62026;39.230;9.122;2023-01-23T09:49:02;3.33;;;1.60;;
67597;SDS011;62026;39.230;9.122;2023-01-23T09:52:02;3.75;;;1.67;;
67597;SDS011;62026;39.230;9.122;2023-01-23T09:57:21;5.03;;;1.83;;
67597;SDS011;62026;39.230;9.122;2023-01-23T10:00:17;3.90;;;1.60;;
67597;SDS011;62026;39.230;9.122;2023-01-23T10:02:56;4.28;;;2.38;;
67597;SDS011;62026;39.230;9.122;2023-01-23T10:08:20;5.22;;;2.33;;
67597;SDS011;62026;39.230;9.122;2023-01-23T10:25:47;8.15;;;4.25;;
67597;SDS011;62026;39.230;9.122;2023-01-23T10:30:46;8.07;;;3.87;;
67597;SDS011;62026;39.230;9.122;2023-01-23T10:33:19;7.22;;;3.58;;
67597;SDS011;62026;39.230;9.122;2023-01-23T10:36:10;6.53;;;3.50;;
67597;SDS011;62026;39.230;9.122;2023-01-23T10:38:49;4.38;;;2.83;;
67597;SDS011;62026;39.230;9.122;2023-01-23T10:41:31;4.53;;;2.70;;
67597;SDS011;62026;39.230;9.122;2023-01-23T10:43:58;7.40;;;2.78;;
67597;SDS011;62026;39.230;9.122;2023-01-23T10:48:57;6.28;;;2.95;;
67597;SDS011;62026;39.230;9.122;2023-01-23T10:54:14;6.40;;;2.30;;
67597;SDS011;62026;39.230;9.122;2023-01-23T10:59:25;2.35;;;1.45;;
67597;SDS011;62026;39.230;9.122;2023-01-23T11:04:37;3.33;;;2.08;;
67597;SDS011;62026;39.230;9.122;2023-01-23T11:07:16;2.55;;;1.70;;
67597;SDS011;62026;39.230;9.122;2023-01-23T11:09:57;2.83;;;1.80;;
67597;SDS011;62026;39.230;9.122;2023-01-23T11:12:47;4.45;;;1.70;;
67597;SDS011;62026;39.230;9.122;2023-01-23T11:15:20;3.22;;;1.83;;
67597;SDS011;62026;39.230;9.122;2023-01-23T11:17:57;3.40;;;1.85;;
67597;SDS011;62026;39.230;9.122;2023-01-23T11:20:27;5.43;;;2.38;;
67597;SDS011;62026;39.230;9.122;2023-01-23T11:25:38;4.18;;;2.05;;
67597;SDS011;62026;39.230;9.122;2023-01-23T11:28:25;4.72;;;2.38;;
67597;SDS011;62026;39.230;9.122;2023-01-23T11:31:14;3.47;;;1.83;;
67597;SDS011;62026;39.230;9.122;2023-01-23T11:37:03;3.08;;;1.05;;
67597;SDS011;62026;39.230;9.122;2023-01-23T11:42:39;1.88;;;1.33;;
67597;SDS011;62026;39.230;9.122;2023-01-23T11:45:31;2.15;;;1.58;;
67597;SDS011;62026;39.230;9.122;2023-01-23T11:50:49;2.35;;;1.20;;
67597;SDS011;62026;39.230;9.122;2023-01-23T11:59:43;1.95;;;0.85;;
67597;SDS011;62026;39.230;9.122;2023-01-23T12:03:02;4.82;;;1.98;;
67597;SDS011;62026;39.230;9.122;2023-01-23T12:11:11;1.55;;;0.90;;
67597;SDS011;62026;39.230;9.122;2023-01-23T12:27:40;0.95;;;0.60;;
67597;SDS011;62026;39.230;9.122;2023-01-23T12:39:34;1.83;;;0.90;;
67597;SDS011;62026;39.230;9.122;2023-01-23T12:42:25;1.05;;;0.70;;
67597;SDS011;62026;39.230;9.122;2023-01-23T12:45:05;1.45;;;0.85;;
67597;SDS011;62026;39.230;9.122;2023-01-23T12:47:39;2.88;;;1.48;;
67597;SDS011;62026;39.230;9.122;2023-01-23T12:50:21;4.53;;;1.45;;
67597;SDS011;62026;39.230;9.122;2023-01-23T12:58:30;2.67;;;1.00;;
67597;SDS011;62026;39.230;9.122;2023-01-23T13:09:49;3.25;;;1.27;;
67597;SDS011;62026;39.230;9.122;2023-01-23T13:12:37;4.65;;;1.55;;
67597;SDS011;62026;39.230;9.122;2023-01-23T13:17:48;5.35;;;1.23;;
67597;SDS011;62026;39.230;9.122;2023-01-23T13:20:56;1.85;;;1.20;;
67597;SDS011;62026;39.230;9.122;2023-01-23T13:23:43;3.95;;;0.90;;
67597;SDS011;62026;39.230;9.122;2023-01-23T13:36:40;2.40;;;1.08;;
67597;SDS011;62026;39.230;9.122;2023-01-23T13:41:48;2.95;;;1.30;;
67597;SDS011;62026;39.230;9.122;2023-01-23T13:50:05;5.00;;;1.88;;
67597;SDS011;62026;39.230;9.122;2023-01-23T13:52:57;4.28;;;1.70;;
67597;SDS011;62026;39.230;9.122;2023-01-23T13:55:57;4.45;;;2.03;;
67597;SDS011;62026;39.230;9.122;2023-01-23T13:58:42;4.90;;;2.20;;
67597;SDS011;62026;39.230;9.122;2023-01-23T14:01:15;3.28;;;1.70;;
67597;SDS011;62026;39.230;9.122;2023-01-23T14:04:22;4.35;;;2.35;;
67597;SDS011;62026;39.230;9.122;2023-01-23T14:10:24;8.85;;;4.03;;
67597;SDS011;62026;39.230;9.122;2023-01-23T14:13:03;11.88;;;4.55;;
67597;SDS011;62026;39.230;9.122;2023-01-23T14:15:38;11.20;;;5.60;;
67597;SDS011;62026;39.230;9.122;2023-01-23T14:18:30;8.68;;;3.47;;
67597;SDS011;62026;39.230;9.122;2023-01-23T14:21:05;3.22;;;2.00;;
67597;SDS011;62026;39.230;9.122;2023-01-23T14:23:47;10.32;;;3.67;;
67597;SDS011;62026;39.230;9.122;2023-01-23T14:26:19;8.02;;;3.42;;
67597;SDS011;62026;39.230;9.122;2023-01-23T14:29:00;4.57;;;2.10;;
67597;SDS011;62026;39.230;9.122;2023-01-23T14:31:50;2.90;;;1.33;;
67597;SDS011;62026;39.230;9.122;2023-01-23T14:34:17;3.70;;;1.52;;
67597;SDS011;62026;39.230;9.122;2023-01-23T14:37:02;7.68;;;3.42;;
67597;SDS011;62026;39.230;9.122;2023-01-23T14:39:32;6.70;;;2.08;;
67597;SDS011;62026;39.230;9.122;2023-01-23T14:42:01;10.23;;;2.78;;
67597;SDS011;62026;39.230;9.122;2023-01-23T14:47:03;4.95;;;1.83;;
67597;SDS011;62026;39.230;9.122;2023-01-23T14:49:33;3.83;;;1.50;;
67597;SDS011;62026;39.230;9.122;2023-01-23T14:52:02;3.00;;;1.73;;
67597;SDS011;62026;39.230;9.122;2023-01-23T14:54:32;2.38;;;1.40;;
67597;SDS011;62026;39.230;9.122;2023-01-23T14:57:02;2.63;;;1.35;;
67597;SDS011;62026;39.230;9.122;2023-01-23T14:59:32;3.22;;;1.30;;
67597;SDS011;62026;39.230;9.122;2023-01-23T15:12:51;1.83;;;1.08;;
67597;SDS011;62026;39.230;9.122;2023-01-23T15:15:34;4.18;;;1.08;;
67597;SDS011;62026;39.230;9.122;2023-01-23T15:18:01;2.25;;;1.42;;
67597;SDS011;62026;39.230;9.122;2023-01-23T15:20:41;2.58;;;0.95;;
67597;SDS011;62026;39.230;9.122;2023-01-23T15:23:30;2.08;;;0.95;;
67597;SDS011;62026;39.230;9.122;2023-01-23T15:28:52;3.03;;;1.35;;
67597;SDS011;62026;39.230;9.122;2023-01-23T15:40:01;3.10;;;1.43;;
67597;SDS011;62026;39.230;9.122;2023-01-23T15:42:29;2.75;;;1.80;;
67597;SDS011;62026;39.230;9.122;2023-01-23T15:44:57;5.97;;;3.08;;
67597;SDS011;62026;39.230;9.122;2023-01-23T15:47:28;4.25;;;2.40;;
67597;SDS011;62026;39.230;9.122;2023-01-23T15:49:56;3.80;;;2.10;;
67597;SDS011;62026;39.230;9.122;2023-01-23T15:52:28;4.38;;;2.15;;
67597;SDS011;62026;39.230;9.122;2023-01-23T15:55:09;3.80;;;1.65;;
67597;SDS011;62026;39.230;9.122;2023-01-23T15:57:36;3.72;;;1.35;;
67597;SDS011;62026;39.230;9.122;2023-01-23T16:02:58;3.38;;;1.10;;
67597;SDS011;62026;39.230;9.122;2023-01-23T16:05:24;2.55;;;1.45;;
67597;SDS011;62026;39.230;9.122;2023-01-23T16:07:55;3.83;;;1.20;;
67597;SDS011;62026;39.230;9.122;2023-01-23T16:10:26;5.13;;;1.50;;
67597;SDS011;62026;39.230;9.122;2023-01-23T16:12:56;4.38;;;2.00;;
67597;SDS011;62026;39.230;9.122;2023-01-23T16:15:26;2.60;;;1.63;;
67597;SDS011;62026;39.230;9.122;2023-01-23T16:18:00;4.25;;;1.35;;
67597;SDS011;62026;39.230;9.122;2023-01-23T16:20:30;6.15;;;1.50;;
67597;SDS011;62026;39.230;9.122;2023-01-23T16:23:00;5.45;;;2.03;;
67597;SDS011;62026;39.230;9.122;2023-01-23T16:25:35;6.80;;;2.90;;
67597;SDS011;62026;39.230;9.122;2023-01-23T16:28:03;8.63;;;4.03;;
67597;SDS011;62026;39.230;9.122;2023-01-23T16:30:30;5.22;;;3.00;;
67597;SDS011;62026;39.230;9.122;2023-01-23T16:32:56;5.43;;;3.38;;
67597;SDS011;62026;39.230;9.122;2023-01-23T16:35:22;6.97;;;3.47;;
67597;SDS011;62026;39.230;9.122;2023-01-23T16:37:50;6.30;;;4.03;;
67597;SDS011;62026;39.230;9.122;2023-01-23T16:40:24;8.57;;;3.47;;
67597;SDS011;62026;39.230;9.122;2023-01-23T16:42:55;14.07;;;5.75;;
67597;SDS011;62026;39.230;9.122;2023-01-23T16:45:23;8.23;;;3.30;;
67597;SDS011;62026;39.230;9.122;2023-01-23T16:47:52;3.40;;;2.20;;
67597;SDS011;62026;39.230;9.122;2023-01-23T16:50:21;2.95;;;1.88;;
67597;SDS011;62026;39.230;9.122;2023-01-23T16:53:01;6.00;;;2.72;;
67597;SDS011;62026;39.230;9.122;2023-01-23T16:55:54;12.95;;;5.78;;
67597;SDS011;62026;39.230;9.122;2023-01-23T16:58:24;13.68;;;5.22;;
67597;SDS011;62026;39.230;9.122;2023-01-23T17:00:56;9.95;;;4.45;;
67597;SDS011;62026;39.230;9.122;2023-01-23T17:03:31;9.55;;;3.30;;
67597;SDS011;62026;39.230;9.122;2023-01-23T17:05:59;6.57;;;2.92;;
67597;SDS011;62026;39.230;9.122;2023-01-23T17:08:25;6.10;;;2.50;;
67597;SDS011;62026;39.230;9.122;2023-01-23T17:10:53;7.25;;;3.38;;
67597;SDS011;62026;39.230;9.122;2023-01-23T17:13:24;7.97;;;3.60;;
67597;SDS011;62026;39.230;9.122;2023-01-23T17:15:53;6.18;;;3.15;;
67597;SDS011;62026;39.230;9.122;2023-01-23T17:18:24;7.97;;;3.08;;
67597;SDS011;62026;39.230;9.122;2023-01-23T17:20:57;6.07;;;2.67;;
67597;SDS011;62026;39.230;9.122;2023-01-23T17:23:24;8.30;;;2.95;;
67597;SDS011;62026;39.230;9.122;2023-01-23T17:25:52;7.45;;;3.30;;
67597;SDS011;62026;39.230;9.122;2023-01-23T17:28:18;7.13;;;2.65;;
67597;SDS011;62026;39.230;9.122;2023-01-23T17:30:45;6.18;;;2.58;;
67597;SDS011;62026;39.230;9.122;2023-01-23T17:33:23;7.15;;;2.50;;
67597;SDS011;62026;39.230;9.122;2023-01-23T17:35:55;7.30;;;3.00;;
67597;SDS011;62026;39.230;9.122;2023-01-23T17:38:23;6.05;;;2.50;;
67597;SDS011;62026;39.230;9.122;2023-01-23T17:40:58;11.13;;;5.25;;
67597;SDS011;62026;39.230;9.122;2023-01-23T17:43:24;19.73;;;7.85;;
67597;SDS011;62026;39.230;9.122;2023-01-23T17:45:50;17.33;;;6.82;;
67597;SDS011;62026;39.230;9.122;2023-01-23T17:48:20;15.82;;;4.57;;
67597;SDS011;62026;39.230;9.122;2023-01-23T17:50:52;8.90;;;4.38;;
67597;SDS011;62026;39.230;9.122;2023-01-23T17:53:19;9.38;;;4.35;;
67597;SDS011;62026;39.230;9.122;2023-01-23T17:55:45;13.57;;;4.78;;
67597;SDS011;62026;39.230;9.122;2023-01-23T17:58:15;16.15;;;8.98;;
67597;SDS011;62026;39.230;9.122;2023-01-23T18:00:43;18.85;;;9.90;;
67597;SDS011;62026;39.230;9.122;2023-01-23T18:03:15;24.17;;;10.27;;
67597;SDS011;62026;39.230;9.122;2023-01-23T18:05:46;10.27;;;4.32;;
67597;SDS011;62026;39.230;9.122;2023-01-23T18:08:13;6.35;;;3.25;;
67597;SDS011;62026;39.230;9.122;2023-01-23T18:10:46;6.55;;;1.80;;